createdAt,value
2019-02-18T00:00:30.606Z,72.02
2019-02-18T00:02:59.244Z,72.19
2019-02-18T00:05:27.729Z,72.41
2019-02-18T00:07:56.317Z,70.99
2019-02-18T00:10:24.814Z,71.03
2019-02-18T00:12:53.776Z,71.33
2019-02-18T00:15:22.363Z,71.39
2019-02-18T00:17:50.836Z,72.14
2019-02-18T00:20:19.624Z,72.24
2019-02-18T00:22:48.118Z,71.05
2019-02-18T00:25:16.620Z,71.35
2019-02-18T00:27:45.175Z,71.37
2019-02-18T00:30:14.116Z,71.48
2019-02-18T00:32:42.594Z,71.64
2019-02-18T00:35:11.097Z,71.19
2019-02-18T00:37:39.577Z,71.42
2019-02-18T00:40:09.744Z,72.69
2019-02-18T00:42:38.236Z,71.28
2019-02-18T00:45:12.249Z,71.48
2019-02-18T00:47:40.722Z,71.10
2019-02-18T00:50:10.490Z,71.88
2019-02-18T00:52:38.965Z,71.35
2019-02-18T00:55:08.623Z,72.24
2019-02-18T00:57:37.161Z,71.48
2019-02-18T01:00:12.238Z,71.91
2019-02-18T01:02:40.821Z,71.70
2019-02-18T01:05:09.819Z,72.08
2019-02-18T01:07:38.388Z,71.70
2019-02-18T01:10:09.908Z,71.85
2019-02-18T01:12:38.423Z,72.71
2019-02-18T01:15:09.816Z,71.81
2019-02-18T01:17:38.370Z,72.20
2019-02-18T01:20:09.825Z,72.16
2019-02-18T01:22:38.334Z,71.94
2019-02-18T01:25:08.935Z,71.72
2019-02-18T01:27:37.474Z,71.78
2019-02-18T01:30:09.261Z,71.80
2019-02-18T01:32:37.755Z,71.87
2019-02-18T01:35:06.659Z,72.04
2019-02-18T01:37:44.827Z,72.34
2019-02-18T01:40:08.284Z,71.24
2019-02-18T01:42:36.812Z,71.53
2019-02-18T01:45:07.986Z,71.77
2019-02-18T01:47:36.435Z,72.89
2019-02-18T01:50:07.814Z,71.40
2019-02-18T01:52:36.319Z,72.05
2019-02-18T01:55:05.547Z,71.57
2019-02-18T01:57:34.037Z,71.58
2019-02-18T02:00:02.504Z,71.37
2019-02-18T02:02:30.997Z,72.41
2019-02-18T02:04:59.471Z,72.20
2019-02-18T02:07:28.054Z,71.84
2019-02-18T02:09:56.517Z,72.11
2019-02-18T02:12:25.242Z,72.28
2019-02-18T02:14:53.729Z,71.66
2019-02-18T02:17:22.241Z,71.81
2019-02-18T02:19:50.714Z,72.03
2019-02-18T02:22:19.195Z,71.45
2019-02-18T02:24:47.681Z,72.08
2019-02-18T02:27:16.164Z,72.46
2019-02-18T02:29:44.709Z,71.56
2019-02-18T02:32:13.192Z,72.91
2019-02-18T02:34:41.673Z,72.56
2019-02-18T02:37:10.150Z,71.84
2019-02-18T02:39:38.639Z,72.12
2019-02-18T02:42:07.115Z,72.13
2019-02-18T02:44:35.602Z,72.17
2019-02-18T02:47:04.080Z,72.62
2019-02-18T02:49:32.582Z,73.31
2019-02-18T02:52:01.042Z,73.96
2019-02-18T02:54:29.533Z,73.94
2019-02-18T02:56:58.002Z,72.48
2019-02-18T02:59:26.628Z,72.45
2019-02-18T03:01:55.109Z,73.67
2019-02-18T03:04:23.611Z,72.62
2019-02-18T03:06:52.090Z,73.06
2019-02-18T03:09:20.712Z,73.04
2019-02-18T03:11:49.193Z,73.10
2019-02-18T03:14:17.683Z,72.67
2019-02-18T03:16:46.165Z,72.93
2019-02-18T03:19:14.665Z,73.27
2019-02-18T03:21:43.137Z,72.89
2019-02-18T03:24:11.625Z,72.54
2019-02-18T03:26:40.105Z,73.44
2019-02-18T03:29:11.652Z,72.79
2019-02-18T03:31:40.123Z,73.12
2019-02-18T03:34:33.698Z,74.01
2019-02-18T03:37:02.146Z,73.30
2019-02-18T03:39:30.652Z,73.40
2019-02-18T03:44:26.871Z,72.98
2019-02-18T03:46:55.378Z,73.21
2019-02-18T03:49:23.858Z,73.13
2019-02-18T03:51:52.363Z,73.22
2019-02-18T03:54:20.843Z,73.54
2019-02-18T03:56:49.348Z,75.03
2019-02-18T03:59:17.810Z,75.06
2019-02-18T04:01:46.313Z,73.36
2019-02-18T04:04:14.771Z,74.38
2019-02-18T04:06:43.279Z,74.92
2019-02-18T04:09:11.738Z,73.76
2019-02-18T04:11:40.242Z,74.76
2019-02-18T04:14:08.726Z,73.60
2019-02-18T04:16:37.226Z,74.60
2019-02-18T04:19:05.722Z,74.95
2019-02-18T04:21:34.204Z,75.04
2019-02-18T04:24:02.719Z,75.09
2019-02-18T04:26:31.247Z,74.00
2019-02-18T04:28:59.751Z,74.51
2019-02-18T04:31:28.234Z,74.23
2019-02-18T04:33:56.709Z,75.74
2019-02-18T04:36:25.193Z,74.59
2019-02-18T04:38:54.545Z,74.85
2019-02-18T04:41:23.178Z,74.35
2019-02-18T04:43:51.659Z,75.65
2019-02-18T04:46:20.185Z,76.01
2019-02-18T04:48:48.673Z,74.66
2019-02-18T04:51:17.188Z,74.71
2019-02-18T04:53:45.658Z,74.83
2019-02-18T04:56:14.142Z,74.63
2019-02-18T04:58:42.621Z,76.17
2019-02-18T05:01:11.103Z,74.94
2019-02-18T05:03:39.595Z,74.97
2019-02-18T05:06:08.079Z,75.04
2019-02-18T05:08:36.562Z,76.04
2019-02-18T05:11:05.030Z,75.24
2019-02-18T05:13:33.511Z,75.29
2019-02-18T05:16:01.979Z,77.57
2019-02-18T05:18:30.475Z,75.34
2019-02-18T05:20:58.955Z,76.00
2019-02-18T05:23:27.463Z,75.57
2019-02-18T05:25:55.943Z,77.04
2019-02-18T05:28:24.455Z,75.58
2019-02-18T05:30:52.938Z,76.84
2019-02-18T05:33:21.429Z,76.16
2019-02-18T05:35:49.918Z,75.78
2019-02-18T05:38:18.430Z,76.09
2019-02-18T05:40:46.888Z,76.24
2019-02-18T05:43:15.395Z,75.69
2019-02-18T05:45:43.851Z,76.12
2019-02-18T05:48:12.385Z,75.86
2019-02-18T05:50:40.884Z,76.26
2019-02-18T05:53:09.399Z,75.56
2019-02-18T05:55:37.868Z,75.87
2019-02-18T05:58:06.355Z,75.49
2019-02-18T06:00:34.843Z,78.03
2019-02-18T06:03:03.346Z,76.53
2019-02-18T06:05:31.819Z,76.04
2019-02-18T06:08:00.352Z,76.16
2019-02-18T06:10:28.833Z,78.04
2019-02-18T06:12:57.410Z,76.36
2019-02-18T06:15:25.823Z,78.69
2019-02-18T06:17:54.367Z,77.29
2019-02-18T06:20:22.862Z,76.35
2019-02-18T06:22:51.375Z,77.33
2019-02-18T06:25:19.865Z,76.39
2019-02-18T06:27:48.384Z,76.32
2019-02-18T06:30:16.839Z,75.92
2019-02-18T06:32:45.343Z,75.99
2019-02-18T06:35:13.843Z,77.19
2019-02-18T06:37:42.459Z,78.31
2019-02-18T06:40:10.941Z,77.49
2019-02-18T06:42:39.431Z,77.88
2019-02-18T06:45:28.245Z,77.80
2019-02-18T06:47:58.345Z,76.92
2019-02-18T06:50:26.789Z,76.52
2019-02-18T06:52:55.273Z,76.46
2019-02-18T06:55:23.755Z,76.49
2019-02-18T06:58:12.619Z,77.20
2019-02-18T07:00:45.175Z,76.57
2019-02-18T07:05:59.159Z,78.65
2019-02-18T07:08:31.730Z,78.47
2019-02-18T07:11:01.849Z,78.11
2019-02-18T07:13:30.329Z,76.51
2019-02-18T07:15:58.892Z,78.35
2019-02-18T07:18:27.490Z,77.64
2019-02-18T07:20:56.077Z,76.70
2019-02-18T07:23:24.566Z,76.82
2019-02-18T07:25:53.110Z,77.52
2019-02-18T07:28:21.596Z,78.04
2019-02-18T07:30:50.100Z,77.47
2019-02-18T07:33:18.591Z,77.57
2019-02-18T07:35:47.094Z,77.50
2019-02-18T07:38:15.557Z,77.21
2019-02-18T07:40:44.055Z,76.97
2019-02-18T07:43:12.530Z,77.05
2019-02-18T07:45:41.026Z,77.15
2019-02-18T07:48:09.503Z,76.48
2019-02-18T07:50:40.766Z,76.47
2019-02-18T07:53:09.227Z,76.44
2019-02-18T07:55:37.729Z,76.18
2019-02-18T07:58:06.192Z,76.28
2019-02-18T08:00:34.667Z,75.59
2019-02-18T08:03:03.140Z,75.55
2019-02-18T08:05:31.641Z,75.45
2019-02-18T08:08:00.107Z,74.95
2019-02-18T08:10:28.619Z,74.92
2019-02-18T08:12:57.074Z,74.29
2019-02-18T08:15:25.583Z,74.19
2019-02-18T08:17:54.042Z,72.74
2019-02-18T08:20:22.532Z,72.86
2019-02-18T08:22:51.002Z,73.07
2019-02-18T08:25:19.489Z,70.53
2019-02-18T08:27:47.958Z,70.87
2019-02-18T08:30:16.531Z,71.55
2019-02-18T08:32:44.997Z,70.34
2019-02-18T08:35:13.514Z,70.24
2019-02-18T08:37:42.030Z,69.58
2019-02-18T08:40:10.590Z,68.58
2019-02-18T08:42:39.065Z,67.38
2019-02-18T08:45:10.901Z,66.63
2019-02-18T08:47:39.391Z,67.87
2019-02-18T08:50:10.684Z,66.06
2019-02-18T08:52:39.209Z,64.74
2019-02-18T08:55:13.097Z,63.27
2019-02-18T08:57:41.602Z,65.63
2019-02-18T09:00:15.433Z,65.63
2019-02-18T09:02:43.927Z,62.67
2019-02-18T09:05:12.539Z,63.97
2019-02-18T09:07:41.182Z,62.76
2019-02-18T09:10:14.458Z,63.61
2019-02-18T09:12:42.959Z,62.73
2019-02-18T09:15:14.178Z,60.47
2019-02-18T09:17:42.474Z,59.52
2019-02-18T09:20:11.126Z,60.82
2019-02-18T09:22:59.553Z,58.92
2019-02-18T09:25:38.652Z,58.89
2019-02-18T09:28:07.132Z,56.23
2019-02-18T09:30:37.248Z,53.91
2019-02-18T09:33:05.778Z,59.49
2019-02-18T09:35:34.244Z,58.36
2019-02-18T09:38:02.753Z,56.33
2019-02-18T09:40:31.236Z,56.50
2019-02-18T09:42:59.726Z,56.63
2019-02-18T09:45:28.223Z,55.87
2019-02-18T09:47:57.066Z,54.30
2019-02-18T09:50:25.544Z,55.96
2019-02-18T09:52:54.059Z,53.31
2019-02-18T09:55:22.535Z,51.96
2019-02-18T09:57:51.038Z,52.86
2019-02-18T10:00:19.527Z,56.04
2019-02-18T10:02:48.020Z,53.75
2019-02-18T10:05:16.500Z,50.17
2019-02-18T10:07:46.042Z,50.24
2019-02-18T10:10:14.532Z,51.65
2019-02-18T10:12:43.054Z,49.49
2019-02-18T10:15:12.065Z,51.92
2019-02-18T10:17:40.552Z,50.10
2019-02-18T10:20:13.073Z,48.57
2019-02-18T10:22:41.570Z,49.24
2019-02-18T10:25:11.793Z,49.70
2019-02-18T10:27:40.312Z,48.13
2019-02-18T10:30:10.876Z,46.62
2019-02-18T10:32:39.383Z,49.52
2019-02-18T10:35:13.339Z,48.39
2019-02-18T10:37:41.845Z,50.31
2019-02-18T10:40:11.151Z,48.86
2019-02-18T10:42:39.661Z,48.07
2019-02-18T10:45:11.250Z,45.78
2019-02-18T10:47:39.738Z,42.11
2019-02-18T10:50:10.563Z,48.72
2019-02-18T10:52:39.064Z,44.60
2019-02-18T10:55:09.785Z,46.24
2019-02-18T10:57:38.674Z,47.32
2019-02-18T11:00:10.184Z,44.41
2019-02-18T11:02:38.680Z,47.22
2019-02-18T11:05:08.099Z,46.87
2019-02-18T11:07:36.596Z,47.09
2019-02-18T11:10:08.309Z,45.01
2019-02-18T11:12:36.801Z,44.84
2019-02-18T11:15:06.841Z,46.39
2019-02-18T11:17:38.916Z,46.08
2019-02-18T11:20:07.591Z,44.28
2019-02-18T11:22:36.098Z,46.38
2019-02-18T11:25:07.735Z,45.70
2019-02-18T11:27:36.240Z,44.31
2019-02-18T11:30:13.727Z,44.42
2019-02-18T11:32:42.248Z,44.80
2019-02-18T11:35:11.569Z,45.27
2019-02-18T11:37:40.084Z,45.25
2019-02-18T11:40:11.806Z,46.24
2019-02-18T11:42:40.358Z,46.42
2019-02-18T11:45:13.961Z,46.55
2019-02-18T11:47:42.523Z,45.89
2019-02-18T11:50:13.056Z,46.43
2019-02-18T11:52:41.556Z,46.62
2019-02-18T11:55:12.092Z,46.91
2019-02-18T11:57:40.942Z,46.30
2019-02-18T12:00:16.380Z,46.38
2019-02-18T12:02:45.006Z,46.49
2019-02-18T12:05:14.029Z,46.42
2019-02-18T12:07:42.759Z,47.18
2019-02-18T12:10:12.299Z,46.93
2019-02-18T12:12:41.224Z,45.52
2019-02-18T12:15:14.102Z,45.84
2019-02-18T12:17:42.607Z,46.00
2019-02-18T12:20:15.059Z,45.77
2019-02-18T12:22:43.549Z,47.08
2019-02-18T12:25:13.404Z,46.47
2019-02-18T12:27:42.216Z,46.64
2019-02-18T12:30:13.763Z,46.20
2019-02-18T12:32:42.245Z,46.88
2019-02-18T12:35:11.095Z,46.02
2019-02-18T12:37:39.780Z,46.75
2019-02-18T12:40:13.014Z,46.74
2019-02-18T12:42:42.595Z,45.71
2019-02-18T12:45:12.606Z,45.13
2019-02-18T12:47:41.346Z,46.16
2019-02-18T12:50:11.283Z,45.14
2019-02-18T12:52:39.810Z,45.33
2019-02-18T12:55:09.607Z,45.82
2019-02-18T12:57:40.174Z,46.36
2019-02-18T13:00:14.041Z,46.18
2019-02-18T13:02:44.627Z,45.14
2019-02-18T13:05:14.895Z,45.59
2019-02-18T13:07:43.434Z,46.06
2019-02-18T13:10:12.985Z,44.30
2019-02-18T13:12:41.741Z,45.66
2019-02-18T13:15:12.999Z,46.02
2019-02-18T13:17:42.817Z,46.38
2019-02-18T13:20:11.652Z,46.58
2019-02-18T13:22:40.264Z,46.56
2019-02-18T13:25:10.004Z,45.94
2019-02-18T13:27:38.524Z,45.55
2019-02-18T13:30:16.100Z,45.86
2019-02-18T13:32:44.689Z,45.36
2019-02-18T13:35:13.446Z,46.18
2019-02-18T13:37:41.921Z,46.28
2019-02-18T13:40:12.085Z,46.77
2019-02-18T13:42:40.556Z,46.41
2019-02-18T13:45:09.700Z,44.91
2019-02-18T13:47:38.190Z,46.85
2019-02-18T13:50:11.792Z,46.68
2019-02-18T13:52:40.290Z,46.59
2019-02-18T13:55:11.042Z,45.67
2019-02-18T13:57:40.156Z,46.24
2019-02-18T14:00:15.602Z,45.10
2019-02-18T14:02:44.080Z,46.59
2019-02-18T14:05:12.790Z,46.23
2019-02-18T14:07:41.276Z,46.10
2019-02-18T14:10:09.828Z,44.88
2019-02-18T14:12:38.685Z,45.67
2019-02-18T14:15:10.711Z,45.58
2019-02-18T14:17:39.201Z,44.52
2019-02-18T14:20:14.226Z,45.58
2019-02-18T14:22:42.887Z,44.52
2019-02-18T14:25:12.012Z,45.65
2019-02-18T14:27:40.496Z,45.98
2019-02-18T14:30:12.073Z,45.97
2019-02-18T14:32:40.551Z,45.74
2019-02-18T14:35:09.712Z,45.16
2019-02-18T14:37:38.207Z,46.13
2019-02-18T14:40:08.880Z,45.94
2019-02-18T14:42:37.358Z,45.57
2019-02-18T14:45:06.608Z,46.23
2019-02-18T14:47:35.113Z,45.62
2019-02-18T14:50:04.093Z,45.83
2019-02-18T14:52:32.570Z,46.41
2019-02-18T14:55:01.067Z,46.35
2019-02-18T14:57:29.731Z,46.69
2019-02-18T14:59:58.297Z,46.56
2019-02-18T15:02:28.285Z,46.99
2019-02-18T15:04:57.059Z,47.32
2019-02-18T15:07:25.622Z,46.78
2019-02-18T15:09:54.139Z,47.26
2019-02-18T15:12:23.183Z,47.49
2019-02-18T15:14:51.669Z,47.49
2019-02-18T15:17:20.188Z,47.53
2019-02-18T15:19:48.669Z,47.33
2019-02-18T15:22:17.197Z,47.08
2019-02-18T15:24:45.864Z,47.99
2019-02-18T15:27:14.743Z,48.20
2019-02-18T15:29:43.232Z,47.97
2019-02-18T15:32:11.745Z,47.95
2019-02-18T15:34:40.254Z,48.22
2019-02-18T15:37:08.757Z,48.29
2019-02-18T15:39:37.399Z,47.95
2019-02-18T15:42:06.321Z,47.96
2019-02-18T15:44:34.778Z,48.26
2019-02-18T15:47:03.306Z,48.42
2019-02-18T15:49:31.799Z,48.63
2019-02-18T15:52:00.376Z,48.58
2019-02-18T15:54:28.864Z,48.49
2019-02-18T15:56:57.365Z,47.99
2019-02-18T15:59:25.851Z,48.55
2019-02-18T16:01:54.350Z,48.75
2019-02-18T16:04:22.841Z,48.62
2019-02-18T16:06:51.342Z,48.82
2019-02-18T16:09:19.848Z,48.90
2019-02-18T16:11:48.336Z,48.51
2019-02-18T16:14:17.186Z,48.65
2019-02-18T16:16:45.702Z,48.99
2019-02-18T16:19:14.184Z,48.60
2019-02-18T16:21:42.698Z,48.95
2019-02-18T16:24:19.644Z,48.50
2019-02-18T16:26:41.419Z,48.85
2019-02-18T16:29:09.915Z,49.24
2019-02-18T16:31:38.479Z,49.44
2019-02-18T16:34:07.272Z,49.55
2019-02-18T16:36:35.798Z,49.82
2019-02-18T16:39:06.178Z,50.01
2019-02-18T16:41:36.218Z,50.25
2019-02-18T16:44:04.903Z,50.73
2019-02-18T16:46:33.844Z,50.59
2019-02-18T16:49:02.768Z,50.75
2019-02-18T16:51:31.290Z,51.16
2019-02-18T16:53:59.783Z,51.07
2019-02-18T16:56:28.267Z,51.50
2019-02-18T16:58:56.772Z,51.44
2019-02-18T17:01:25.255Z,51.42
2019-02-18T17:03:53.784Z,51.30
2019-02-18T17:06:22.263Z,51.48
2019-02-18T17:08:50.777Z,51.72
2019-02-18T17:11:20.025Z,51.94
2019-02-18T17:13:48.540Z,52.19
2019-02-18T17:16:17.430Z,52.79
2019-02-18T17:18:45.938Z,52.40
2019-02-18T17:21:14.425Z,52.63
2019-02-18T17:23:44.402Z,52.70
2019-02-18T17:26:12.867Z,53.20
2019-02-18T17:28:41.379Z,53.32
2019-02-18T17:31:10.334Z,53.29
2019-02-18T17:33:38.850Z,53.33
2019-02-18T17:36:07.328Z,53.40
2019-02-18T17:38:35.830Z,53.42
2019-02-18T17:41:04.372Z,54.22
2019-02-18T17:43:32.874Z,53.99
2019-02-18T17:46:01.357Z,54.30
2019-02-18T17:48:30.246Z,54.54
2019-02-18T17:50:58.762Z,54.58
2019-02-18T17:53:27.315Z,56.10
2019-02-18T17:55:55.820Z,55.09
2019-02-18T17:58:24.346Z,55.23
2019-02-18T18:00:54.468Z,55.99
2019-02-18T18:03:23.357Z,56.36
2019-02-18T18:05:51.870Z,55.41
2019-02-18T18:08:20.380Z,56.24
2019-02-18T18:10:48.937Z,56.11
2019-02-18T18:13:25.007Z,56.26
2019-02-18T18:15:47.729Z,56.03
2019-02-18T18:18:16.253Z,55.99
2019-02-18T18:20:44.727Z,55.97
2019-02-18T18:23:13.239Z,57.34
2019-02-18T18:25:41.723Z,56.26
2019-02-18T18:28:10.225Z,57.41
2019-02-18T18:30:38.758Z,56.69
2019-02-18T18:33:07.442Z,56.81
2019-02-18T18:35:36.087Z,57.15
2019-02-18T18:38:04.773Z,56.79
2019-02-18T18:40:33.255Z,56.88
2019-02-18T18:43:01.738Z,57.08
2019-02-18T18:45:30.218Z,57.90
2019-02-18T18:47:58.713Z,57.47
2019-02-18T18:50:27.565Z,57.67
2019-02-18T18:52:56.068Z,57.53
2019-02-18T18:55:24.547Z,57.79
2019-02-18T18:57:53.027Z,57.77
2019-02-18T19:00:26.838Z,57.99
2019-02-18T19:02:55.319Z,58.32
2019-02-18T19:05:24.056Z,58.44
2019-02-18T19:07:52.791Z,58.28
2019-02-18T19:10:21.355Z,58.74
2019-02-18T19:12:49.854Z,58.59
2019-02-18T19:15:18.909Z,58.78
2019-02-18T19:17:47.528Z,59.03
2019-02-18T19:20:16.200Z,60.02
2019-02-18T19:22:44.674Z,59.21
2019-02-18T19:25:13.838Z,59.07
2019-02-18T19:27:42.330Z,59.21
2019-02-18T19:30:16.968Z,59.25
2019-02-18T19:32:45.846Z,59.27
2019-02-18T19:35:14.350Z,59.30
2019-02-18T19:37:42.823Z,59.66
2019-02-18T19:40:13.485Z,59.30
2019-02-18T19:42:42.293Z,59.50
2019-02-18T19:45:19.379Z,59.65
2019-02-18T19:47:47.940Z,60.06
2019-02-18T19:50:18.207Z,59.90
2019-02-18T19:52:47.245Z,60.18
2019-02-18T19:55:16.049Z,60.52
2019-02-18T19:57:44.640Z,60.76
2019-02-18T20:00:18.965Z,60.58
2019-02-18T20:02:47.565Z,60.22
2019-02-18T20:05:17.699Z,60.62
2019-02-18T20:07:46.307Z,60.55
2019-02-18T20:10:15.198Z,60.60
2019-02-18T20:12:43.725Z,60.83
2019-02-18T20:15:14.843Z,62.04
2019-02-18T20:17:43.487Z,61.87
2019-02-18T20:20:13.900Z,61.54
2019-02-18T20:22:42.399Z,61.59
2019-02-18T20:25:10.949Z,61.78
2019-02-18T20:27:39.491Z,61.72
2019-02-18T20:30:15.738Z,61.64
2019-02-18T20:32:44.408Z,61.87
2019-02-18T20:35:13.433Z,62.12
2019-02-18T20:37:44.059Z,62.06
2019-02-18T20:40:13.679Z,62.07
2019-02-18T20:42:44.888Z,62.41
2019-02-18T20:45:14.981Z,63.11
2019-02-18T20:47:44.089Z,62.24
2019-02-18T20:50:14.396Z,62.27
2019-02-18T20:52:42.991Z,62.59
2019-02-18T20:55:14.027Z,62.23
2019-02-18T20:57:42.540Z,62.44
2019-02-18T21:00:32.860Z,62.30
2019-02-18T21:03:01.357Z,62.49
2019-02-18T21:05:29.869Z,62.49
2019-02-18T21:07:58.360Z,62.61
2019-02-18T21:10:26.887Z,62.80
2019-02-18T21:12:55.383Z,62.79
2019-02-18T21:15:23.931Z,62.90
2019-02-18T21:17:52.407Z,63.05
2019-02-18T21:20:20.929Z,62.79
2019-02-18T21:22:49.733Z,63.25
2019-02-18T21:25:18.220Z,63.77
2019-02-18T21:27:46.753Z,64.37
2019-02-18T21:30:18.611Z,63.50
2019-02-18T21:32:47.114Z,65.75
2019-02-18T21:35:15.705Z,63.49
2019-02-18T21:37:44.545Z,63.45
2019-02-18T21:40:13.273Z,63.25
2019-02-18T21:42:41.915Z,63.66
2019-02-18T21:45:15.390Z,64.52
2019-02-18T21:47:44.021Z,63.66
2019-02-18T21:50:12.854Z,65.23
2019-02-18T21:52:41.551Z,63.86
2019-02-18T21:55:11.699Z,63.78
2019-02-18T21:57:40.198Z,64.12
2019-02-18T22:00:13.440Z,64.15
2019-02-18T22:02:41.938Z,63.85
2019-02-18T22:05:10.443Z,65.33
2019-02-18T22:07:38.960Z,65.56
2019-02-18T22:10:09.209Z,65.79
2019-02-18T22:12:37.722Z,65.32
2019-02-18T22:15:08.172Z,65.86
2019-02-18T22:17:37.049Z,64.61
2019-02-18T22:20:08.489Z,64.34
2019-02-18T22:22:37.389Z,64.91
2019-02-18T22:25:08.817Z,66.91
2019-02-18T22:27:52.351Z,65.44
2019-02-18T22:30:20.873Z,65.20
2019-02-18T22:32:49.401Z,66.00
2019-02-18T22:35:18.075Z,65.03
2019-02-18T22:37:46.587Z,66.20
2019-02-18T22:40:22.838Z,66.02
2019-02-18T22:42:51.348Z,67.15
2019-02-18T22:45:19.854Z,66.86
2019-02-18T22:47:48.360Z,67.03
2019-02-18T22:50:17.310Z,66.56
2019-02-18T22:52:55.116Z,67.25
2019-02-18T22:55:23.600Z,67.17
2019-02-18T22:57:52.120Z,66.60
2019-02-18T23:00:43.388Z,66.91
2019-02-18T23:03:11.898Z,66.90
2019-02-18T23:05:40.461Z,67.24
2019-02-18T23:08:08.992Z,67.04
2019-02-18T23:10:37.503Z,66.22
2019-02-18T23:13:06.171Z,66.75
2019-02-18T23:15:35.119Z,66.53
2019-02-18T23:18:04.807Z,66.42
2019-02-18T23:20:33.307Z,67.95
2019-02-18T23:23:01.814Z,67.55
2019-02-18T23:25:30.341Z,66.36
2019-02-18T23:27:58.878Z,67.09
2019-02-18T23:30:27.341Z,66.77
2019-02-18T23:32:56.231Z,67.59
2019-02-18T23:35:24.774Z,67.89
2019-02-18T23:37:53.275Z,67.11
2019-02-18T23:40:21.802Z,68.33
2019-02-18T23:42:50.317Z,67.25
2019-02-18T23:45:18.820Z,67.39
2019-02-18T23:47:47.351Z,66.83
2019-02-18T23:50:15.853Z,66.77
2019-02-18T23:52:44.461Z,67.68
2019-02-18T23:55:13.191Z,68.01
2019-02-18T23:57:41.760Z,67.87
